createdAt,value
2022-11-28T00:00:09.833Z,24.80
2022-11-28T00:02:43.760Z,24.80
2022-11-28T00:05:15.100Z,25.00
2022-11-28T00:07:46.333Z,25.10
2022-11-28T00:10:17.027Z,25.10
2022-11-28T00:12:47.595Z,25.30
2022-11-28T00:15:18.124Z,25.50
2022-11-28T00:17:48.968Z,25.40
2022-11-28T00:20:19.836Z,25.50
2022-11-28T00:22:51.019Z,25.70
2022-11-28T00:25:21.211Z,25.80
2022-11-28T00:27:51.944Z,25.90
2022-11-28T00:30:22.644Z,25.90
2022-11-28T00:32:53.018Z,26.00
2022-11-28T00:35:23.663Z,26.20
2022-11-28T00:37:53.740Z,26.40
2022-11-28T00:40:24.040Z,26.50
2022-11-28T00:42:54.509Z,26.50
2022-11-28T00:45:26.318Z,26.40
2022-11-28T00:47:57.067Z,26.40
2022-11-28T00:50:28.081Z,26.60
2022-11-28T00:52:58.941Z,26.80
2022-11-28T00:55:29.370Z,26.90
2022-11-28T00:57:59.968Z,26.90
2022-11-28T01:00:30.454Z,27.10
2022-11-28T01:03:01.466Z,27.00
2022-11-28T01:05:31.980Z,27.20
2022-11-28T01:08:02.711Z,27.30
2022-11-28T01:10:33.362Z,27.20
2022-11-28T01:13:03.487Z,27.00
2022-11-28T01:15:33.542Z,27.10
2022-11-28T01:18:04.312Z,27.10
2022-11-28T01:20:35.205Z,27.10
2022-11-28T01:23:06.474Z,27.30
2022-11-28T01:25:37.723Z,27.20
2022-11-28T01:28:08.422Z,27.20
2022-11-28T01:30:38.931Z,27.20
2022-11-28T01:33:09.407Z,27.20
2022-11-28T01:35:40.354Z,27.40
2022-11-28T01:38:11.437Z,27.60
2022-11-28T01:40:48.201Z,27.70
2022-11-28T01:43:18.931Z,27.70
2022-11-28T01:45:49.520Z,27.80
2022-11-28T01:48:31.237Z,27.70
2022-11-28T01:51:04.938Z,27.70
2022-11-28T01:53:39.984Z,28.00
2022-11-28T01:56:19.955Z,28.20
2022-11-28T01:58:57.379Z,28.50
2022-11-28T02:01:28.571Z,28.30
2022-11-28T02:04:01.520Z,28.40
2022-11-28T02:06:32.867Z,28.60
2022-11-28T02:09:04.087Z,28.90
2022-11-28T02:11:57.080Z,28.80
2022-11-28T02:14:51.726Z,28.80
2022-11-28T02:18:01.305Z,29.10
2022-11-28T02:20:57.193Z,29.20
2022-11-28T02:23:52.501Z,29.50
2022-11-28T02:26:50.266Z,29.50
2022-11-28T02:29:59.823Z,29.50
2022-11-28T02:32:57.055Z,30.00
2022-11-28T02:36:06.984Z,30.20
2022-11-28T02:39:00.874Z,30.30
2022-11-28T02:41:44.389Z,29.70
2022-11-28T02:44:25.098Z,29.60
2022-11-28T02:47:05.192Z,29.70
2022-11-28T02:49:53.364Z,30.10
2022-11-28T02:52:30.140Z,30.30
2022-11-28T02:55:02.629Z,30.60
2022-11-28T02:57:42.448Z,30.60
2022-11-28T03:00:33.697Z,30.30
2022-11-28T03:03:30.555Z,30.60
2022-11-28T03:06:27.795Z,30.70
2022-11-28T03:09:28.253Z,30.90
2022-11-28T03:12:23.171Z,31.30
2022-11-28T03:15:03.813Z,31.80
2022-11-28T03:18:11.227Z,31.10
2022-11-28T03:20:57.226Z,30.30
2022-11-28T03:23:50.631Z,30.30
2022-11-28T03:27:00.436Z,30.30
2022-11-28T03:29:55.711Z,30.40
2022-11-28T03:32:29.433Z,30.40
2022-11-28T03:35:20.070Z,30.10
2022-11-28T03:38:00.021Z,29.90
2022-11-28T03:40:37.993Z,30.20
2022-11-28T03:43:15.653Z,30.90
2022-11-28T03:45:54.828Z,31.20
2022-11-28T03:48:33.405Z,30.90
2022-11-28T03:51:17.349Z,30.80
2022-11-28T03:54:19.030Z,30.90
2022-11-28T03:57:17.271Z,30.90
2022-11-28T03:59:52.296Z,30.60
2022-11-28T04:02:32.860Z,30.70
2022-11-28T04:05:26.015Z,31.20
2022-11-28T04:08:04.954Z,31.10
2022-11-28T04:10:43.664Z,31.50
2022-11-28T04:13:45.582Z,31.70
2022-11-28T04:16:39.954Z,31.90
2022-11-28T04:19:30.071Z,32.10
2022-11-28T04:22:33.750Z,32.30
2022-11-28T04:25:09.731Z,32.60
2022-11-28T04:27:50.264Z,32.80
2022-11-28T04:30:21.513Z,33.10
2022-11-28T04:32:59.402Z,33.00
2022-11-28T04:35:39.358Z,33.00
2022-11-28T04:38:12.574Z,33.00
2022-11-28T04:40:57.158Z,32.90
2022-11-28T04:43:32.864Z,33.40
2022-11-28T04:46:09.550Z,33.40
2022-11-28T04:48:40.769Z,33.50
2022-11-28T04:51:50.150Z,33.70
2022-11-28T04:54:38.634Z,33.90
2022-11-28T04:57:42.205Z,34.30
2022-11-28T05:00:17.080Z,33.60
2022-11-28T05:02:51.893Z,33.90
2022-11-28T05:05:26.116Z,34.10
2022-11-28T05:07:56.812Z,34.30
2022-11-28T05:10:28.052Z,34.40
2022-11-28T05:12:59.152Z,34.40
2022-11-28T05:15:29.381Z,34.70
2022-11-28T05:17:59.928Z,34.80
2022-11-28T05:20:31.299Z,34.70
2022-11-28T05:23:01.765Z,34.70
2022-11-28T05:25:32.668Z,34.50
2022-11-28T05:28:03.823Z,34.80
2022-11-28T05:30:34.289Z,35.00
2022-11-28T05:33:05.259Z,35.10
2022-11-28T05:35:36.203Z,35.30
2022-11-28T05:38:12.183Z,35.30
2022-11-28T05:40:45.921Z,35.30
2022-11-28T05:43:16.732Z,35.50
2022-11-28T05:45:47.869Z,35.30
2022-11-28T05:48:18.115Z,35.40
2022-11-28T05:50:49.047Z,34.80
2022-11-28T05:53:21.524Z,35.20
2022-11-28T05:55:52.288Z,35.50
2022-11-28T05:58:22.857Z,35.40
2022-11-28T06:00:53.458Z,35.70
2022-11-28T06:03:24.621Z,35.70
2022-11-28T06:05:54.870Z,35.80
2022-11-28T06:08:25.033Z,35.90
2022-11-28T06:11:02.737Z,35.60
2022-11-28T06:13:32.883Z,35.70
2022-11-28T06:16:03.878Z,35.90
2022-11-28T06:18:34.131Z,35.80
2022-11-28T06:21:06.212Z,35.90
2022-11-28T06:23:38.069Z,36.20
2022-11-28T06:26:11.279Z,35.40
2022-11-28T06:28:42.156Z,36.00
2022-11-28T06:31:32.121Z,35.90
2022-11-28T06:34:02.495Z,36.20
2022-11-28T06:36:33.299Z,36.00
2022-11-28T06:39:03.465Z,36.30
2022-11-28T06:41:34.422Z,36.10
2022-11-28T06:44:04.884Z,35.60
2022-11-28T06:46:35.317Z,35.90
2022-11-28T06:49:05.717Z,36.20
2022-11-28T06:51:36.196Z,36.20
2022-11-28T06:54:08.179Z,36.50
2022-11-28T06:56:38.213Z,36.50
2022-11-28T06:59:09.018Z,36.90
2022-11-28T07:01:39.867Z,36.60
2022-11-28T07:04:11.995Z,36.50
2022-11-28T07:06:42.795Z,36.30
2022-11-28T07:09:13.128Z,36.20
2022-11-28T07:11:44.276Z,36.10
2022-11-28T07:14:15.165Z,36.10
2022-11-28T07:16:45.895Z,36.60
2022-11-28T07:19:16.680Z,37.00
2022-11-28T07:21:47.523Z,37.10
2022-11-28T07:24:19.181Z,37.00
2022-11-28T07:26:49.882Z,36.90
2022-11-28T07:29:21.554Z,36.80
2022-11-28T07:31:53.262Z,36.50
2022-11-28T07:34:23.885Z,36.90
2022-11-28T07:36:53.992Z,37.10
2022-11-28T07:39:24.100Z,36.80
2022-11-28T07:41:54.599Z,36.60
2022-11-28T07:44:25.679Z,36.30
2022-11-28T07:46:56.154Z,36.20
2022-11-28T07:49:28.006Z,36.20
2022-11-28T07:51:59.023Z,36.10
2022-11-28T07:54:29.553Z,36.00
2022-11-28T07:57:15.130Z,36.30
2022-11-28T07:59:46.058Z,36.20
2022-11-28T08:02:17.338Z,36.30
2022-11-28T08:04:52.719Z,36.70
2022-11-28T08:07:26.143Z,36.70
2022-11-28T08:09:56.625Z,36.60
2022-11-28T08:12:27.472Z,36.60
2022-11-28T08:14:58.072Z,36.40
2022-11-28T08:17:28.585Z,36.20
2022-11-28T08:19:59.689Z,36.30
2022-11-28T08:22:30.730Z,36.40
2022-11-28T08:25:01.665Z,36.30
2022-11-28T08:27:33.994Z,36.30
2022-11-28T08:30:04.895Z,36.40
2022-11-28T08:32:35.423Z,36.60
2022-11-28T08:35:06.232Z,36.20
2022-11-28T08:37:36.996Z,36.20
2022-11-28T08:40:08.920Z,36.50
2022-11-28T08:42:39.825Z,36.60
2022-11-28T08:45:12.651Z,36.50
2022-11-28T08:47:44.208Z,36.30
2022-11-28T08:50:14.992Z,35.90
2022-11-28T08:52:46.175Z,35.90
2022-11-28T08:55:19.028Z,36.10
2022-11-28T08:57:51.502Z,36.00
2022-11-28T09:00:22.725Z,36.10
2022-11-28T09:02:53.688Z,36.10
2022-11-28T09:05:24.193Z,36.10
2022-11-28T09:07:58.054Z,36.10
2022-11-28T09:10:28.896Z,36.00
2022-11-28T09:12:59.200Z,36.10
2022-11-28T09:15:29.542Z,35.70
2022-11-28T09:18:00.232Z,35.70
2022-11-28T09:20:30.306Z,35.70
2022-11-28T09:23:00.723Z,35.50
2022-11-28T09:25:31.360Z,35.50
2022-11-28T09:28:02.841Z,35.40
2022-11-28T09:30:33.321Z,35.60
2022-11-28T09:33:03.845Z,35.50
2022-11-28T09:35:35.164Z,35.40
2022-11-28T09:38:05.606Z,35.10
2022-11-28T09:40:46.289Z,35.10
2022-11-28T09:43:33.102Z,35.20
2022-11-28T09:46:08.023Z,35.00
2022-11-28T09:48:47.678Z,35.10
2022-11-28T09:51:32.698Z,34.90
2022-11-28T09:54:18.768Z,34.70
2022-11-28T09:56:50.893Z,34.70
2022-11-28T09:59:30.757Z,34.60
2022-11-28T10:02:38.236Z,34.60
2022-11-28T10:05:28.928Z,34.50
2022-11-28T10:08:38.446Z,34.50
2022-11-28T10:11:48.183Z,34.40
2022-11-28T10:14:45.073Z,34.30
2022-11-28T10:17:34.727Z,34.30
2022-11-28T10:20:13.752Z,34.20
2022-11-28T10:23:07.144Z,34.10
2022-11-28T10:25:51.652Z,34.00
2022-11-28T10:28:46.197Z,33.90
2022-11-28T10:31:28.858Z,33.70
2022-11-28T10:34:19.085Z,33.70
2022-11-28T10:37:14.390Z,33.80
2022-11-28T10:39:47.657Z,33.50
2022-11-28T10:42:41.628Z,33.40
2022-11-28T10:45:40.857Z,33.30
2022-11-28T10:48:40.419Z,33.30
2022-11-28T10:51:45.289Z,33.30
2022-11-28T10:54:45.769Z,33.40
2022-11-28T10:57:48.586Z,33.30
2022-11-28T11:00:21.390Z,33.20
2022-11-28T11:02:56.357Z,33.20
2022-11-28T11:05:37.960Z,33.00
2022-11-28T11:08:29.077Z,33.00
2022-11-28T11:11:20.718Z,33.00
2022-11-28T11:14:11.563Z,33.00
2022-11-28T11:17:01.880Z,32.90
2022-11-28T11:19:35.612Z,32.90
2022-11-28T11:22:30.652Z,33.10
2022-11-28T11:25:17.318Z,33.00
2022-11-28T11:27:54.002Z,33.20
2022-11-28T11:30:47.514Z,33.10
2022-11-28T11:33:20.241Z,33.00
2022-11-28T11:35:52.151Z,32.80
2022-11-28T11:38:37.452Z,32.60
2022-11-28T11:41:31.127Z,32.30
2022-11-28T11:44:27.579Z,32.00
2022-11-28T11:47:08.992Z,31.90
2022-11-28T11:49:42.925Z,31.80
2022-11-28T11:52:31.943Z,32.00
2022-11-28T11:55:21.177Z,32.20
2022-11-28T11:57:55.867Z,32.20
2022-11-28T12:00:43.346Z,32.20
2022-11-28T12:03:44.116Z,32.30
2022-11-28T12:06:29.169Z,31.60
2022-11-28T12:09:38.142Z,31.60
2022-11-28T12:12:23.721Z,31.80
2022-11-28T12:14:54.771Z,31.70
2022-11-28T12:17:58.582Z,31.40
2022-11-28T12:20:46.603Z,31.40
2022-11-28T12:23:56.214Z,31.50
2022-11-28T12:26:44.858Z,31.60
2022-11-28T12:29:43.537Z,31.40
2022-11-28T12:32:44.805Z,31.00
2022-11-28T12:35:40.567Z,30.80
2022-11-28T12:38:43.164Z,30.50
2022-11-28T12:41:52.505Z,30.90
2022-11-28T12:45:02.072Z,31.00
2022-11-28T12:48:11.358Z,30.90
2022-11-28T12:51:02.254Z,30.90
2022-11-28T12:54:11.551Z,31.00
2022-11-28T12:57:11.659Z,31.00
2022-11-28T13:00:09.714Z,31.00
2022-11-28T13:03:16.785Z,30.30
2022-11-28T13:06:14.897Z,30.10
2022-11-28T13:09:24.145Z,30.00
2022-11-28T13:12:33.546Z,30.00
2022-11-28T13:15:27.664Z,30.50
2022-11-28T13:18:16.941Z,30.30
2022-11-28T13:21:26.337Z,30.40
2022-11-28T13:24:35.911Z,30.50
2022-11-28T13:27:38.873Z,30.40
2022-11-28T13:30:30.656Z,30.30
2022-11-28T13:33:35.290Z,30.30
2022-11-28T13:36:09.660Z,30.20
2022-11-28T13:39:13.054Z,30.00
2022-11-28T13:42:28.388Z,30.00
2022-11-28T13:45:11.689Z,30.00
2022-11-28T13:47:43.697Z,29.90
2022-11-28T13:50:35.573Z,29.80
2022-11-28T13:53:25.832Z,29.70
2022-11-28T13:56:27.959Z,29.70
2022-11-28T13:59:05.005Z,29.80
2022-11-28T14:02:02.333Z,29.70
2022-11-28T14:04:35.586Z,29.80
2022-11-28T14:07:14.814Z,29.90
2022-11-28T14:10:26.029Z,29.60
2022-11-28T14:13:29.781Z,29.80
2022-11-28T14:16:33.318Z,29.80
2022-11-28T14:19:45.635Z,29.50
2022-11-28T14:22:55.694Z,29.50
2022-11-28T14:25:36.838Z,29.40
2022-11-28T14:28:38.268Z,29.40
2022-11-28T14:31:40.484Z,29.30
2022-11-28T14:34:42.490Z,29.40
2022-11-28T14:37:38.167Z,29.90
2022-11-28T14:40:47.386Z,29.80
2022-11-28T14:43:32.978Z,29.60
2022-11-28T14:46:25.333Z,29.40
2022-11-28T14:49:19.413Z,29.30
2022-11-28T14:52:37.187Z,29.30
2022-11-28T14:55:04.559Z,29.30
2022-11-28T14:57:37.879Z,29.30
2022-11-28T15:00:18.148Z,28.90
2022-11-28T15:03:28.948Z,28.70
2022-11-28T15:06:22.988Z,28.50
2022-11-28T15:09:19.971Z,28.90
2022-11-28T15:12:26.246Z,29.10
2022-11-28T15:14:59.798Z,29.30
2022-11-28T15:17:36.167Z,29.20
2022-11-28T15:20:19.176Z,29.10
2022-11-28T15:22:49.821Z,29.00
2022-11-28T15:25:22.833Z,28.70
2022-11-28T15:27:55.650Z,28.60
2022-11-28T15:30:28.187Z,28.50
2022-11-28T15:33:03.507Z,28.70
2022-11-28T15:35:35.021Z,28.80
2022-11-28T15:38:07.218Z,28.70
2022-11-28T15:40:40.096Z,28.30
2022-11-28T15:43:15.407Z,28.30
2022-11-28T15:45:50.071Z,28.40
2022-11-28T15:48:49.087Z,28.30
2022-11-28T15:51:39.035Z,28.20
2022-11-28T15:54:42.619Z,28.10
2022-11-28T15:57:28.646Z,28.10
2022-11-28T15:59:59.755Z,28.40
2022-11-28T16:02:37.072Z,28.60
2022-11-28T16:05:18.028Z,28.60
2022-11-28T16:07:49.179Z,28.30
2022-11-28T16:10:34.581Z,28.40
2022-11-28T16:13:14.571Z,28.40
2022-11-28T16:15:50.668Z,28.30
2022-11-28T16:18:22.138Z,28.20
2022-11-28T16:20:52.908Z,28.10
2022-11-28T16:23:34.528Z,28.30
2022-11-28T16:26:27.266Z,28.30
2022-11-28T16:29:17.479Z,28.40
2022-11-28T16:31:51.147Z,28.10
2022-11-28T16:34:48.602Z,27.90
2022-11-28T16:37:26.272Z,27.90
2022-11-28T16:40:29.655Z,27.70
2022-11-28T16:43:01.167Z,27.80
2022-11-28T16:45:35.416Z,27.80
2022-11-28T16:48:19.297Z,27.90
2022-11-28T16:51:28.828Z,27.90
2022-11-28T16:54:01.438Z,27.90
2022-11-28T16:56:48.189Z,27.90
2022-11-28T16:59:22.728Z,27.80
2022-11-28T17:01:56.750Z,27.70
2022-11-28T17:04:32.155Z,27.60
2022-11-28T17:07:07.232Z,27.60
2022-11-28T17:09:38.305Z,27.70
2022-11-28T17:12:40.447Z,27.70
2022-11-28T17:15:18.148Z,27.80
2022-11-28T17:17:49.653Z,27.60
2022-11-28T17:20:19.874Z,27.70
2022-11-28T17:22:52.633Z,27.70
2022-11-28T17:25:23.665Z,27.70
2022-11-28T17:27:54.565Z,27.60
2022-11-28T17:30:24.524Z,27.70
2022-11-28T17:32:54.737Z,27.70
2022-11-28T17:35:26.636Z,27.60
2022-11-28T17:37:56.956Z,27.60
2022-11-28T17:40:38.460Z,27.50
2022-11-28T17:43:09.494Z,27.50
2022-11-28T17:45:41.565Z,27.50
2022-11-28T17:48:15.319Z,27.50
2022-11-28T17:50:47.831Z,27.60
2022-11-28T17:53:21.495Z,27.50
2022-11-28T17:56:01.029Z,27.60
2022-11-28T17:58:32.180Z,27.70
2022-11-28T18:01:03.377Z,27.70
2022-11-28T18:03:33.592Z,27.60
2022-11-28T18:06:06.818Z,27.40
2022-11-28T18:08:37.194Z,27.40
2022-11-28T18:11:10.412Z,27.40
2022-11-28T18:13:43.922Z,27.40
2022-11-28T18:16:16.464Z,27.50
2022-11-28T18:18:47.724Z,27.50
2022-11-28T18:21:18.749Z,27.60
2022-11-28T18:23:52.118Z,27.50
2022-11-28T18:26:26.673Z,27.60
2022-11-28T18:28:57.767Z,27.70
2022-11-28T18:31:31.451Z,27.60
2022-11-28T18:34:05.864Z,27.40
2022-11-28T18:36:39.099Z,27.30
2022-11-28T18:39:16.638Z,27.30
2022-11-28T18:41:47.644Z,27.50
2022-11-28T18:44:18.283Z,27.50
2022-11-28T18:46:49.040Z,27.60
2022-11-28T18:49:21.176Z,27.50
2022-11-28T18:51:52.182Z,27.50
2022-11-28T18:54:23.327Z,27.50
2022-11-28T18:56:55.579Z,27.60
2022-11-28T18:59:26.505Z,27.50
2022-11-28T19:01:56.689Z,27.60
2022-11-28T19:04:27.452Z,27.30
2022-11-28T19:06:59.357Z,27.10
2022-11-28T19:09:30.550Z,27.00
2022-11-28T19:12:02.049Z,26.90
2022-11-28T19:14:32.818Z,26.80
2022-11-28T19:17:03.960Z,26.80
2022-11-28T19:19:34.512Z,26.90
2022-11-28T19:22:06.120Z,26.90
2022-11-28T19:24:37.226Z,26.80
2022-11-28T19:27:12.490Z,26.90
2022-11-28T19:29:45.582Z,26.80
2022-11-28T19:32:18.581Z,26.80
2022-11-28T19:34:53.712Z,26.80
2022-11-28T19:37:24.932Z,26.90
2022-11-28T19:39:58.576Z,26.90
2022-11-28T19:42:32.544Z,26.80
2022-11-28T19:45:02.989Z,26.80
2022-11-28T19:47:33.590Z,26.80
2022-11-28T19:50:04.178Z,26.80
2022-11-28T19:52:35.062Z,26.70
2022-11-28T19:55:05.516Z,26.90
2022-11-28T19:57:40.227Z,27.00
2022-11-28T20:00:11.676Z,26.80
2022-11-28T20:02:44.719Z,26.80
2022-11-28T20:05:15.637Z,26.70
2022-11-28T20:07:46.623Z,26.70
2022-11-28T20:10:17.511Z,26.70
2022-11-28T20:12:48.238Z,26.80
2022-11-28T20:15:19.156Z,26.70
2022-11-28T20:17:50.741Z,26.70
2022-11-28T20:20:21.360Z,26.60
2022-11-28T20:22:51.510Z,26.60
2022-11-28T20:25:22.586Z,26.60
2022-11-28T20:27:54.392Z,26.60
2022-11-28T20:30:25.544Z,26.60
2022-11-28T20:32:56.940Z,26.60
2022-11-28T20:35:28.902Z,26.70
2022-11-28T20:37:59.948Z,26.50
2022-11-28T20:40:30.339Z,26.50
2022-11-28T20:43:00.871Z,26.70
2022-11-28T20:45:31.645Z,26.70
2022-11-28T20:48:03.305Z,26.70
2022-11-28T20:50:33.805Z,26.60
2022-11-28T20:53:04.777Z,26.60
2022-11-28T20:55:34.921Z,26.60
2022-11-28T20:58:05.096Z,26.70
2022-11-28T21:00:35.586Z,26.80
2022-11-28T21:03:06.768Z,26.80
2022-11-28T21:05:40.387Z,26.70
2022-11-28T21:08:11.261Z,26.60
2022-11-28T21:10:42.173Z,26.40
2022-11-28T21:13:12.473Z,26.70
2022-11-28T21:15:50.155Z,26.70
2022-11-28T21:18:20.362Z,26.70
2022-11-28T21:20:50.510Z,26.60
2022-11-28T21:23:20.575Z,26.60
2022-11-28T21:25:51.310Z,26.40
2022-11-28T21:28:24.448Z,26.30
2022-11-28T21:30:54.598Z,26.40
2022-11-28T21:33:24.967Z,26.50
2022-11-28T21:36:01.153Z,26.40
2022-11-28T21:38:32.396Z,26.50
2022-11-28T21:41:03.178Z,26.00
2022-11-28T21:43:34.876Z,25.90
2022-11-28T21:46:07.794Z,26.10
2022-11-28T21:48:39.066Z,26.10
2022-11-28T21:51:09.518Z,26.30
2022-11-28T21:53:40.355Z,26.30
2022-11-28T21:56:12.853Z,26.20
2022-11-28T21:58:43.412Z,26.20
2022-11-28T22:01:15.624Z,26.20
2022-11-28T22:03:46.353Z,26.00
2022-11-28T22:06:23.704Z,25.90
2022-11-28T22:08:54.873Z,26.20
2022-11-28T22:11:25.907Z,26.30
2022-11-28T22:13:56.071Z,26.30
2022-11-28T22:16:29.996Z,25.90
2022-11-28T22:19:02.790Z,25.80
2022-11-28T22:24:26.428Z,26.00
2022-11-28T22:26:58.262Z,26.20
2022-11-28T22:29:29.381Z,26.20
2022-11-28T22:32:00.631Z,26.00
2022-11-28T22:34:34.553Z,25.90
2022-11-28T22:37:07.462Z,26.10
2022-11-28T22:39:40.431Z,26.20
2022-11-28T22:42:11.934Z,26.00
2022-11-28T22:44:42.577Z,26.00
2022-11-28T22:47:13.042Z,25.90
2022-11-28T22:49:44.217Z,26.10
2022-11-28T22:52:15.849Z,26.10
2022-11-28T22:54:46.342Z,26.10
2022-11-28T22:57:16.998Z,25.90
2022-11-28T22:59:47.519Z,25.90
2022-11-28T23:02:18.177Z,25.80
2022-11-28T23:04:49.253Z,25.90
2022-11-28T23:07:19.830Z,25.80
2022-11-28T23:09:52.975Z,25.70
2022-11-28T23:12:23.463Z,25.70
2022-11-28T23:14:53.630Z,25.60
2022-11-28T23:17:24.562Z,25.70
2022-11-28T23:19:55.343Z,25.70
2022-11-28T23:22:26.174Z,25.80
2022-11-28T23:24:56.695Z,25.70
2022-11-28T23:27:27.636Z,25.70
2022-11-28T23:29:58.099Z,25.80
2022-11-28T23:32:29.457Z,25.70
2022-11-28T23:35:01.599Z,25.60
2022-11-28T23:37:32.137Z,25.60
2022-11-28T23:40:02.296Z,25.60
2022-11-28T23:42:32.757Z,25.60
2022-11-28T23:45:03.492Z,25.60
2022-11-28T23:47:34.103Z,25.70
2022-11-28T23:50:04.233Z,25.80
2022-11-28T23:52:34.398Z,25.70
2022-11-28T23:55:05.291Z,25.90
2022-11-28T23:57:35.506Z,25.90
